Time;durP1;ratioP1;P1;durP2;ratioP2;P2;SDS_P1;SDS_P2;PMS_P1;PMS_P2;Temp;Humidity;BMP_temperature;BMP_pressure;BME280_temperature;BME280_humidity;BME280_pressure;Samples;Min_cycle;Max_cycle;Signal;HPM_P1;HPM_P2
2023/07/23 00:02:05;;;;;;;9.20;4.57;;;;;;;22.62;58.86;93919.41;5099467;28;20038;-75
2023/07/23 00:04:31;;;;;;;14.18;5.25;;;;;;;22.54;58.29;93903.53;5101426;28;20367;-74
2023/07/23 00:06:56;;;;;;;12.85;4.68;;;;;;;22.53;58.25;93920.97;5100434;28;20036;-74
2023/07/23 00:09:21;;;;;;;11.85;5.40;;;;;;;22.53;58.19;93902.78;5083128;28;20490;-74
2023/07/23 00:11:47;;;;;;;11.65;4.70;;;;;;;22.49;58.79;93934.50;5101458;28;20024;-74
2023/07/23 00:14:12;;;;;;;9.18;4.65;;;;;;;22.52;58.92;93930.25;5098080;28;20036;-74
2023/07/23 00:16:38;;;;;;;17.08;5.13;;;;;;;22.50;59.07;93927.13;5099763;28;20035;-74
2023/07/23 00:19:10;;;;;;;13.70;4.97;;;;;;;22.44;58.94;93917.88;5080939;28;20047;-75
2023/07/23 00:21:35;;;;;;;12.65;5.35;;;;;;;22.50;59.51;93937.97;5102775;28;20047;-74
2023/07/23 00:24:04;;;;;;;15.30;5.75;;;;;;;22.49;59.83;93950.75;5103256;28;20031;-75
2023/07/23 00:26:29;;;;;;;14.23;5.55;;;;;;;22.49;60.30;93947.25;5105595;28;20017;-74
2023/07/23 00:28:55;;;;;;;15.52;6.85;;;;;;;22.43;60.62;93952.31;5103943;28;20051;-75
2023/07/23 00:31:20;;;;;;;19.48;6.25;;;;;;;22.45;61.11;93941.84;5104661;28;20032;-74
2023/07/23 00:33:46;;;;;;;14.32;5.38;;;;;;;22.38;60.66;93947.28;5103874;28;20455;-74
2023/07/23 00:36:11;;;;;;;14.52;5.68;;;;;;;22.42;60.63;93964.31;5104991;28;20036;-74
2023/07/23 00:38:37;;;;;;;16.25;5.95;;;;;;;22.46;60.77;93961.59;5092922;28;20020;-75
2023/07/23 00:41:02;;;;;;;15.60;5.78;;;;;;;22.42;60.70;93952.69;5085760;28;20075;-74
2023/07/23 00:43:28;;;;;;;13.63;5.80;;;;;;;22.33;60.87;93955.00;5099039;28;20071;-74
2023/07/23 00:45:53;;;;;;;14.45;5.30;;;;;;;22.33;60.85;93944.16;5085599;28;20173;-75
2023/07/23 00:48:19;;;;;;;14.55;5.65;;;;;;;22.41;60.71;93959.25;5100696;28;20052;-76
2023/07/23 00:50:44;;;;;;;10.60;5.55;;;;;;;22.29;61.31;93965.84;5104183;28;20025;-74
2023/07/23 00:53:10;;;;;;;11.43;5.32;;;;;;;22.09;61.99;93938.28;5101745;28;20032;-75
2023/07/23 00:55:36;;;;;;;12.73;5.75;;;;;;;22.11;61.92;93957.59;5103121;28;20092;-74
2023/07/23 00:58:01;;;;;;;14.98;4.90;;;;;;;22.13;62.31;93957.22;5102952;28;20069;-75
2023/07/23 01:00:27;;;;;;;12.93;4.90;;;;;;;22.04;62.40;93957.59;5102262;28;20035;-74
2023/07/23 01:02:52;;;;;;;11.32;5.35;;;;;;;22.09;62.70;93976.19;5102914;28;20012;-75
2023/07/23 01:05:18;;;;;;;12.15;5.43;;;;;;;22.08;62.54;93971.16;5101284;28;20020;-75
2023/07/23 01:07:44;;;;;;;9.63;4.93;;;;;;;21.84;63.28;93973.38;5104661;28;20040;-74
2023/07/23 01:10:10;;;;;;;10.57;5.28;;;;;;;21.95;63.33;93983.47;5101306;28;20345;-74
2023/07/23 01:12:39;;;;;;;12.95;5.32;;;;;;;21.73;63.41;93948.19;5097343;28;20051;-75
2023/07/23 01:15:08;;;;;;;12.68;5.03;;;;;;;21.89;63.24;93977.66;5086606;28;20028;-74
2023/07/23 01:17:38;;;;;;;10.27;6.00;;;;;;;21.95;63.32;93978.81;5098338;28;20032;-75
2023/07/23 01:20:07;;;;;;;10.68;5.35;;;;;;;21.98;63.45;93999.75;5098853;28;20048;-75
2023/07/23 01:22:34;;;;;;;13.75;5.93;;;;;;;21.96;62.90;93985.78;5098194;28;20032;-73
2023/07/23 01:24:59;;;;;;;16.42;5.65;;;;;;;22.01;62.81;93998.97;5097094;28;20063;-74
2023/07/23 01:27:25;;;;;;;11.07;5.70;;;;;;;21.98;62.70;93998.97;5099790;28;20036;-76
2023/07/23 01:29:53;;;;;;;11.02;4.97;;;;;;;21.90;62.93;93987.34;5101944;28;20046;-75
2023/07/23 01:32:18;;;;;;;16.80;5.60;;;;;;;21.84;62.48;93989.63;5102155;28;20075;-74
2023/07/23 01:34:44;;;;;;;9.93;5.50;;;;;;;21.94;62.40;94017.13;5107391;28;20037;-75
2023/07/23 01:37:10;;;;;;;15.13;6.05;;;;;;;21.77;62.53;93994.22;5103471;28;20044;-75
2023/07/23 01:39:36;;;;;;;10.57;5.95;;;;;;;21.85;62.63;94014.78;5082818;28;20079;-74
2023/07/23 01:42:02;;;;;;;20.73;5.65;;;;;;;21.84;62.56;94013.22;5099737;28;20046;-75
2023/07/23 01:44:27;;;;;;;11.45;5.00;;;;;;;21.87;62.38;94026.75;5101504;28;20016;-74
2023/07/23 01:46:53;;;;;;;12.73;4.90;;;;;;;21.72;62.61;94030.53;5101567;28;20259;-74
2023/07/23 01:49:18;;;;;;;15.55;5.03;;;;;;;21.71;63.09;94033.63;5082258;28;20052;-75
2023/07/23 01:51:43;;;;;;;23.33;5.53;;;;;;;21.58;63.54;94035.09;5102312;28;20048;-74
2023/07/23 01:54:09;;;;;;;11.73;4.63;;;;;;;21.51;63.42;94040.44;5099632;28;20031;-75
2023/07/23 01:56:34;;;;;;;10.98;5.03;;;;;;;21.52;63.96;94063.63;5089587;28;20083;-75
2023/07/23 01:59:00;;;;;;;11.75;5.68;;;;;;;21.43;64.19;94058.53;5085292;28;20035;-75
2023/07/23 02:01:25;;;;;;;8.00;4.25;;;;;;;21.52;63.65;94058.22;5082386;28;20036;-74
2023/07/23 02:03:51;;;;;;;20.85;5.47;;;;;;;21.50;63.03;94068.66;5102641;28;20063;-74
2023/07/23 02:06:16;;;;;;;14.80;5.45;;;;;;;21.43;63.03;94080.97;5100042;28;20127;-74
2023/07/23 02:08:41;;;;;;;21.75;5.82;;;;;;;21.57;61.67;94091.16;5099840;28;20016;-74
2023/07/23 02:11:07;;;;;;;16.52;5.22;;;;;;;21.59;61.34;94096.19;5100304;28;20032;-74
2023/07/23 02:13:32;;;;;;;13.93;5.93;;;;;;;21.67;60.21;94108.63;5100188;28;20032;-75
2023/07/23 02:15:58;;;;;;;12.70;5.97;;;;;;;21.58;58.02;94100.03;5100767;28;20034;-75
2023/07/23 02:18:23;;;;;;;15.65;5.47;;;;;;;21.53;57.37;94087.63;5103004;28;20056;-74
2023/07/23 02:20:49;;;;;;;11.00;4.38;;;;;;;21.56;57.39;94089.59;5102374;28;20094;-74
2023/07/23 02:23:16;;;;;;;18.98;5.32;;;;;;;21.62;57.54;94088.09;5101811;28;20234;-75
2023/07/23 02:25:42;;;;;;;15.75;5.82;;;;;;;21.63;57.89;94080.75;5101349;28;20043;-74
2023/07/23 02:28:10;;;;;;;14.63;5.47;;;;;;;21.72;59.02;94092.03;5101051;28;20044;-74
2023/07/23 02:30:36;;;;;;;15.88;5.85;;;;;;;21.71;59.54;94083.13;5101372;28;20059;-75
2023/07/23 02:33:02;;;;;;;18.50;5.35;;;;;;;21.82;59.14;94083.97;5100846;28;20032;-74
2023/07/23 02:35:27;;;;;;;16.80;6.03;;;;;;;21.90;58.80;94087.53;5101705;28;20487;-74
2023/07/23 02:37:53;;;;;;;21.77;6.15;;;;;;;21.83;58.60;94087.47;5103173;28;20076;-76
2023/07/23 02:40:19;;;;;;;13.40;6.40;;;;;;;21.76;58.99;94080.06;5100168;28;20039;-75
2023/07/23 02:42:44;;;;;;;30.95;7.38;;;;;;;21.94;58.79;94101.84;5091676;28;20100;-74
2023/07/23 02:45:11;;;;;;;16.98;6.65;;;;;;;21.99;59.21;94096.06;5093904;28;20059;-75
2023/07/23 02:47:36;;;;;;;14.82;6.43;;;;;;;21.90;59.29;94090.22;5098502;28;20850;-74
2023/07/23 02:50:02;;;;;;;16.10;6.82;;;;;;;21.98;59.13;94099.94;5096762;28;20047;-75
2023/07/23 02:52:28;;;;;;;16.08;6.88;;;;;;;21.96;59.43;94088.69;5097075;28;20028;-74
2023/07/23 02:54:55;;;;;;;31.70;8.13;;;;;;;21.98;59.75;94096.44;5080329;28;20056;-74
2023/07/23 02:57:20;;;;;;;23.02;7.53;;;;;;;22.02;59.78;94106.16;5097048;28;20051;-74
2023/07/23 02:59:46;;;;;;;13.23;8.80;;;;;;;22.03;59.92;94113.13;5081756;28;20024;-75
2023/07/23 03:02:13;;;;;;;14.57;7.50;;;;;;;22.07;60.01;94116.63;5079753;28;20050;-74
2023/07/23 03:04:39;;;;;;;16.90;9.30;;;;;;;21.98;60.36;94107.28;5101920;28;20036;-75
2023/07/23 03:07:04;;;;;;;14.82;8.63;;;;;;;22.02;60.80;94108.06;5103940;28;20028;-74
2023/07/23 03:09:30;;;;;;;17.20;8.73;;;;;;;21.91;60.93;94093.69;5094932;28;20590;-77
2023/07/23 03:11:55;;;;;;;20.70;8.55;;;;;;;21.94;60.61;94095.66;5095459;28;20027;-75
2023/07/23 03:14:20;;;;;;;16.83;9.10;;;;;;;21.98;60.52;94091.81;5103029;28;20024;-74
2023/07/23 03:16:46;;;;;;;19.33;9.68;;;;;;;22.03;60.09;94105.00;5105851;28;20064;-74
2023/07/23 03:19:11;;;;;;;19.20;10.20;;;;;;;21.80;60.06;94086.28;5104597;28;20032;-75
2023/07/23 03:21:36;;;;;;;13.82;8.98;;;;;;;21.97;59.77;94095.66;5103354;28;20051;-75
2023/07/23 03:24:05;;;;;;;15.50;9.43;;;;;;;21.79;59.35;94090.16;5104678;28;20051;-74
2023/07/23 03:26:30;;;;;;;12.50;8.70;;;;;;;21.91;59.12;94101.81;5103680;28;20036;-74
2023/07/23 03:28:56;;;;;;;18.90;9.80;;;;;;;21.89;58.49;94102.22;5104972;28;20032;-75
2023/07/23 03:31:21;;;;;;;16.83;9.82;;;;;;;21.93;58.35;94097.59;5081118;28;20119;-74
2023/07/23 03:33:46;;;;;;;12.85;9.30;;;;;;;21.98;57.90;94096.44;5086923;28;20040;-74
2023/07/23 03:36:12;;;;;;;14.45;9.70;;;;;;;21.96;57.98;94085.19;5098509;28;20032;-74
2023/07/23 03:38:37;;;;;;;11.93;9.55;;;;;;;21.99;57.33;94098.00;5102403;28;20530;-75
2023/07/23 03:41:03;;;;;;;18.17;9.90;;;;;;;21.97;57.14;94098.38;5097657;28;20039;-74
2023/07/23 03:43:29;;;;;;;17.55;10.77;;;;;;;21.99;56.93;94098.78;5100082;28;20056;-74
2023/07/23 03:45:54;;;;;;;14.65;10.27;;;;;;;22.05;56.45;94102.66;5099398;28;20071;-74
2023/07/23 03:48:20;;;;;;;10.70;9.35;;;;;;;22.11;55.59;94106.56;5086632;28;20075;-75
2023/07/23 03:50:45;;;;;;;19.20;10.15;;;;;;;22.09;55.89;94106.19;5102316;28;20038;-73
2023/07/23 03:53:10;;;;;;;13.15;9.63;;;;;;;22.04;55.42;94100.34;5104589;28;20558;-75
2023/07/23 03:55:36;;;;;;;15.90;10.23;;;;;;;22.09;55.60;94103.50;5088626;28;20050;-74
2023/07/23 03:58:01;;;;;;;12.48;10.02;;;;;;;22.13;55.47;94109.69;5100995;28;20069;-76
2023/07/23 04:00:27;;;;;;;16.50;10.98;;;;;;;22.14;55.42;94122.09;5102824;28;20032;-74
2023/07/23 04:02:52;;;;;;;14.85;11.13;;;;;;;22.06;55.08;94093.38;5104176;28;20073;-74
2023/07/23 04:05:17;;;;;;;14.18;11.38;;;;;;;22.17;55.08;94118.59;5103773;28;20032;-74
2023/07/23 04:07:43;;;;;;;14.68;9.63;;;;;;;22.16;54.85;94113.56;5103824;28;20132;-75
2023/07/23 04:10:08;;;;;;;10.55;9.45;;;;;;;22.15;53.79;94112.78;5103475;28;20403;-75
2023/07/23 04:12:34;;;;;;;13.98;10.38;;;;;;;22.17;54.22;94120.53;5105056;28;20052;-74
2023/07/23 04:15:03;;;;;;;12.00;9.85;;;;;;;22.17;54.88;94110.50;5101737;28;20044;-74
2023/07/23 04:17:29;;;;;;;16.63;10.60;;;;;;;22.29;53.91;94114.84;5105063;28;20080;-75
2023/07/23 04:19:54;;;;;;;11.73;10.15;;;;;;;22.33;53.99;94114.84;5103447;28;20047;-74
2023/07/23 04:22:20;;;;;;;15.05;11.27;;;;;;;22.43;53.55;94112.19;5086500;28;20039;-74
2023/07/23 04:24:45;;;;;;;12.82;10.60;;;;;;;22.51;54.16;94116.47;5104542;28;20068;-75
2023/07/23 04:27:10;;;;;;;12.45;9.48;;;;;;;22.42;52.93;94102.50;5104252;28;21636;-75
2023/07/23 04:29:36;;;;;;;12.68;8.90;;;;;;;22.38;51.26;94098.22;5105644;28;20055;-75
2023/07/23 04:32:01;;;;;;;12.35;9.57;;;;;;;22.42;52.39;94094.38;5103605;28;20039;-75
2023/07/23 04:34:27;;;;;;;12.13;9.35;;;;;;;22.45;52.95;94114.50;5085227;28;20044;-75
2023/07/23 04:36:52;;;;;;;9.48;8.43;;;;;;;22.34;51.47;94092.78;5105712;28;20043;-75
2023/07/23 04:39:19;;;;;;;8.00;7.18;;;;;;;22.41;50.04;94106.38;5103418;28;20044;-75
2023/07/23 04:41:44;;;;;;;10.70;8.85;;;;;;;22.44;50.44;94100.16;5105471;28;20028;-75
2023/07/23 04:44:10;;;;;;;14.90;8.55;;;;;;;22.68;50.97;94123.88;5103756;28;20043;-74
2023/07/23 04:46:35;;;;;;;9.35;8.27;;;;;;;22.70;50.36;94118.09;5103939;28;20070;-75
2023/07/23 04:49:00;;;;;;;11.57;8.40;;;;;;;22.85;49.52;94125.09;5084951;28;20044;-75
2023/07/23 04:51:26;;;;;;;10.68;7.60;;;;;;;22.88;49.45;94115.47;5102234;28;20027;-75
2023/07/23 04:53:51;;;;;;;10.65;7.00;;;;;;;22.88;48.60;94118.94;5103731;28;20101;-75
2023/07/23 04:56:16;;;;;;;8.43;6.25;;;;;;;22.69;47.49;94078.56;5084616;28;20040;-75
2023/07/23 04:58:42;;;;;;;8.05;5.88;;;;;;;22.86;46.51;94113.13;5100823;28;20089;-75
2023/07/23 05:01:09;;;;;;;6.55;5.88;;;;;;;22.99;46.81;94130.59;5087236;28;20046;-75
2023/07/23 05:03:35;;;;;;;7.68;5.40;;;;;;;22.96;45.47;94112.41;5102318;28;20036;-75
2023/07/23 05:06:03;;;;;;;9.63;5.18;;;;;;;23.06;45.93;94114.34;5080211;28;20032;-75
2023/07/23 05:08:28;;;;;;;7.88;4.65;;;;;;;23.17;44.53;94127.16;5100297;28;20027;-76
2023/07/23 05:11:02;;;;;;;8.25;4.75;;;;;;;23.27;45.24;94118.25;5078937;28;20043;-75
2023/07/23 05:13:28;;;;;;;5.25;4.75;;;;;;;23.25;45.16;94112.44;5103291;28;20042;-74
2023/07/23 05:15:54;;;;;;;6.90;4.55;;;;;;;23.34;43.18;94115.53;5103052;28;20091;-75
2023/07/23 05:18:20;;;;;;;4.70;4.22;;;;;;;23.42;43.23;94119.81;5101799;28;20040;-75
2023/07/23 05:20:45;;;;;;;7.72;4.68;;;;;;;23.48;44.16;94126.41;5102375;28;20391;-74
2023/07/23 05:23:10;;;;;;;4.70;3.60;;;;;;;23.40;43.53;94124.84;5100496;28;20119;-76
2023/07/23 05:25:36;;;;;;;5.90;3.75;;;;;;;23.39;42.12;94117.88;5101563;28;20036;-75
2023/07/23 05:28:01;;;;;;;4.18;3.78;;;;;;;23.39;43.33;94113.22;5101621;28;20032;-75
2023/07/23 05:30:27;;;;;;;6.95;3.80;;;;;;;23.51;42.40;94128.38;5086758;28;20047;-75
2023/07/23 05:32:52;;;;;;;4.57;4.03;;;;;;;23.54;41.81;94111.31;5102030;28;20574;-74
2023/07/23 05:35:17;;;;;;;5.85;3.53;;;;;;;23.59;41.58;94116.34;5085416;28;20039;-75
2023/07/23 05:37:43;;;;;;;6.47;3.22;;;;;;;23.62;40.16;94125.66;5088117;28;20065;-75
2023/07/23 05:40:09;;;;;;;6.22;3.58;;;;;;;23.51;40.07;94125.66;5087709;28;20028;-75
2023/07/23 05:42:34;;;;;;;6.47;3.65;;;;;;;23.55;40.29;94126.44;5086149;28;20040;-75
2023/07/23 05:45:00;;;;;;;5.50;4.07;;;;;;;23.57;41.00;94129.53;5102669;28;20054;-75
2023/07/23 05:47:25;;;;;;;8.10;4.45;;;;;;;23.47;40.07;94116.69;5102805;28;20031;-75
2023/07/23 05:49:50;;;;;;;5.38;3.60;;;;;;;23.34;39.93;94126.41;5103211;28;20028;-76
2023/07/23 05:52:16;;;;;;;5.70;3.08;;;;;;;23.45;40.67;94122.53;5102782;28;20036;-75
2023/07/23 05:54:41;;;;;;;8.80;4.30;;;;;;;23.49;40.73;94112.47;5102053;28;20044;-76
2023/07/23 05:57:07;;;;;;;5.68;3.85;;;;;;;23.70;40.43;94133.44;5103914;28;20023;-77
2023/07/23 05:59:33;;;;;;;5.00;3.72;;;;;;;23.44;40.03;94120.19;5083968;28;20031;-75
2023/07/23 06:01:58;;;;;;;4.35;3.47;;;;;;;23.50;40.29;94129.53;5102173;28;20036;-75
2023/07/23 06:04:24;;;;;;;7.63;3.80;;;;;;;23.50;40.92;94119.47;5103286;28;20043;-75
2023/07/23 06:06:50;;;;;;;6.50;3.90;;;;;;;23.54;40.79;94120.25;5103076;28;20066;-76
2023/07/23 06:09:17;;;;;;;8.38;4.38;;;;;;;23.64;40.95;94134.19;5102591;28;20056;-74
2023/07/23 06:11:43;;;;;;;5.97;3.55;;;;;;;23.61;40.64;94124.13;5101608;28;20045;-77
2023/07/23 06:14:08;;;;;;;7.00;4.47;;;;;;;23.55;40.69;94126.44;5101267;28;20055;-75
2023/07/23 06:16:34;;;;;;;7.25;4.30;;;;;;;23.47;42.00;94113.97;5103836;28;20051;-75
2023/07/23 06:18:59;;;;;;;9.15;4.85;;;;;;;23.44;41.43;94126.41;5102380;28;20036;-74
2023/07/23 06:21:24;;;;;;;5.65;4.13;;;;;;;23.52;41.62;94127.19;5102795;28;20085;-75
2023/07/23 06:23:51;;;;;;;9.70;4.65;;;;;;;23.52;42.18;94122.56;5101060;28;20089;-74
2023/07/23 06:26:17;;;;;;;6.93;5.22;;;;;;;23.54;43.63;94127.59;5097210;28;20032;-73
2023/07/23 06:28:42;;;;;;;6.90;4.80;;;;;;;23.34;43.64;94093.81;5095980;28;20128;-74
2023/07/23 06:31:07;;;;;;;8.73;4.65;;;;;;;23.69;43.56;94137.31;5098565;28;20094;-74
2023/07/23 06:33:33;;;;;;;7.18;4.68;;;;;;;23.75;43.01;94130.31;5095781;28;20036;-73
2023/07/23 06:36:00;;;;;;;9.20;5.55;;;;;;;23.78;44.84;94124.09;5098646;28;20036;-74
2023/07/23 06:38:25;;;;;;;8.13;5.22;;;;;;;23.82;45.37;94129.53;5098039;28;20474;-74
2023/07/23 06:40:52;;;;;;;7.90;5.70;;;;;;;23.95;44.83;94133.41;5095663;28;20067;-74
2023/07/23 06:43:19;;;;;;;7.63;4.97;;;;;;;24.12;45.67;94132.63;5097035;28;20989;-75
2023/07/23 06:45:45;;;;;;;9.93;5.90;;;;;;;24.16;44.26;94132.59;5098659;28;20040;-74
2023/07/23 06:48:11;;;;;;;7.65;5.15;;;;;;;24.28;44.82;94129.50;5095840;28;20307;-74
2023/07/23 06:50:37;;;;;;;8.40;5.38;;;;;;;24.35;43.86;94121.28;5082602;28;20137;-74
2023/07/23 06:53:02;;;;;;;8.77;5.70;;;;;;;24.16;44.88;94124.47;5098011;28;20032;-74
2023/07/23 06:55:28;;;;;;;6.50;5.55;;;;;;;24.25;44.64;94119.38;5097720;28;20028;-74
2023/07/23 06:57:53;;;;;;;9.98;6.05;;;;;;;24.33;43.47;94120.94;5081893;28;20044;-74
2023/07/23 07:00:19;;;;;;;12.30;6.15;;;;;;;24.41;43.22;94127.88;5095413;28;20291;-74
2023/07/23 07:02:44;;;;;;;11.82;6.15;;;;;;;24.22;43.27;94128.34;5081251;28;20028;-74
2023/07/23 07:05:10;;;;;;;9.82;5.65;;;;;;;24.27;43.29;94114.34;5078949;28;20044;-75
2023/07/23 07:07:37;;;;;;;7.80;5.03;;;;;;;24.14;43.69;94105.06;5094165;28;20031;-75
2023/07/23 07:10:03;;;;;;;6.85;5.15;;;;;;;24.32;43.24;94124.81;5078612;28;20035;-74
2023/07/23 07:12:29;;;;;;;9.07;5.43;;;;;;;24.38;42.26;94129.47;5096854;28;20101;-74
2023/07/23 07:14:55;;;;;;;8.75;5.30;;;;;;;24.36;41.31;94125.56;5078523;28;20016;-75
2023/07/23 07:17:20;;;;;;;8.52;4.95;;;;;;;24.39;41.01;94136.44;5081687;28;20058;-74
2023/07/23 07:19:45;;;;;;;9.27;5.22;;;;;;;24.50;40.83;94136.41;5099043;28;20041;-75
2023/07/23 07:22:11;;;;;;;7.13;5.15;;;;;;;24.52;41.18;94125.13;5096729;28;20097;-74
2023/07/23 07:24:36;;;;;;;7.70;4.25;;;;;;;24.43;40.49;94136.44;5098502;28;20036;-74
2023/07/23 07:27:08;;;;;;;7.75;5.15;;;;;;;24.49;40.83;94129.44;5095607;28;20414;-75
2023/07/23 07:29:33;;;;;;;8.20;4.28;;;;;;;24.43;39.66;94139.94;5096599;28;20041;-75
2023/07/23 07:31:59;;;;;;;10.55;4.75;;;;;;;24.44;40.32;94135.28;5096737;28;20122;-74
2023/07/23 07:34:24;;;;;;;7.85;4.63;;;;;;;24.58;39.17;94143.38;5096026;28;20603;-74
2023/07/23 07:36:50;;;;;;;10.80;4.72;;;;;;;24.56;40.20;94140.25;5099374;28;20044;-75
2023/07/23 07:39:15;;;;;;;8.77;5.25;;;;;;;24.55;40.01;94141.44;5101267;28;20032;-74
2023/07/23 07:41:41;;;;;;;7.30;5.10;;;;;;;24.29;40.92;94112.03;5096925;28;20097;-74
2023/07/23 07:44:06;;;;;;;9.88;5.22;;;;;;;24.46;41.14;94121.25;5083074;28;20028;-75
2023/07/23 07:46:32;;;;;;;8.73;5.50;;;;;;;24.63;40.22;94134.81;5102360;28;20043;-74
2023/07/23 07:48:57;;;;;;;15.40;5.57;;;;;;;24.54;41.98;94109.97;5100444;28;20108;-74
2023/07/23 07:51:22;;;;;;;7.03;4.68;;;;;;;24.67;40.25;94141.00;5097736;28;20648;-74
2023/07/23 07:53:48;;;;;;;6.50;4.82;;;;;;;24.64;39.78;94130.91;5102183;28;20474;-74
2023/07/23 07:56:17;;;;;;;15.07;5.82;;;;;;;24.53;39.71;94129.41;5079775;28;20106;-74
2023/07/23 07:58:46;;;;;;;9.75;4.95;;;;;;;24.52;39.65;94125.13;5099175;28;20060;-74
2023/07/23 08:01:12;;;;;;;9.27;5.60;;;;;;;24.52;40.26;94133.28;5100058;28;20063;-74
2023/07/23 08:03:38;;;;;;;9.00;5.72;;;;;;;24.42;40.03;94119.34;5101166;28;20035;-74
2023/07/23 08:06:03;;;;;;;7.22;4.68;;;;;;;24.52;40.50;94127.84;5096822;28;20017;-74
2023/07/23 08:08:31;;;;;;;8.98;4.50;;;;;;;24.57;40.34;94139.09;5101115;28;20035;-75
2023/07/23 08:10:58;;;;;;;10.50;6.00;;;;;;;24.57;39.78;94125.50;5085691;28;20439;-76
2023/07/23 08:13:24;;;;;;;10.60;5.40;;;;;;;24.56;40.69;94128.63;5100377;28;20070;-74
2023/07/23 08:15:51;;;;;;;12.32;5.80;;;;;;;24.48;41.25;94121.66;5099598;28;20084;-74
2023/07/23 08:18:17;;;;;;;10.63;6.13;;;;;;;24.56;41.45;94128.63;5100274;28;20047;-73
2023/07/23 08:20:42;;;;;;;6.60;5.18;;;;;;;24.50;41.78;94130.97;5100183;28;20040;-74
2023/07/23 08:23:08;;;;;;;9.82;5.43;;;;;;;24.55;41.70;94130.56;5103605;28;20089;-75
2023/07/23 08:25:36;;;;;;;9.77;6.05;;;;;;;24.54;40.65;94133.69;5103401;28;20028;-74
2023/07/23 08:28:04;;;;;;;9.07;5.40;;;;;;;24.61;41.34;94131.69;5101550;28;20116;-74
2023/07/23 08:30:31;;;;;;;9.30;5.50;;;;;;;24.69;40.19;94125.06;5104293;28;20055;-75
2023/07/23 08:32:58;;;;;;;12.05;5.13;;;;;;;24.80;40.39;94128.53;5084677;28;20008;-75
2023/07/23 08:35:25;;;;;;;7.10;5.00;;;;;;;24.91;40.94;94127.72;5104162;28;20035;-76
2023/07/23 08:37:51;;;;;;;9.32;4.80;;;;;;;24.68;39.65;94109.94;5103945;28;20074;-74
2023/07/23 08:40:18;;;;;;;13.07;5.80;;;;;;;24.76;39.92;94121.56;5104597;28;20120;-76
2023/07/23 08:42:55;;;;;;;6.80;4.47;;;;;;;24.67;40.73;94124.69;5103308;28;20056;-75
2023/07/23 08:45:30;;;;;;;9.02;6.20;;;;;;;24.73;40.61;94119.66;5104186;28;20028;-73
2023/07/23 08:48:19;;;;;;;10.93;4.93;;;;;;;24.77;40.60;94114.97;5102765;28;20037;-76
2023/07/23 08:50:49;;;;;;;10.57;5.45;;;;;;;24.68;40.07;94118.09;5076542;28;20038;-74
2023/07/23 08:53:16;;;;;;;6.82;4.53;;;;;;;24.63;40.35;94117.72;5103803;28;20032;-75
2023/07/23 08:55:43;;;;;;;9.77;5.72;;;;;;;24.66;40.76;94117.69;5085535;28;20894;-76
2023/07/23 08:58:17;;;;;;;13.90;6.53;;;;;;;24.76;40.26;94111.47;5102972;28;20130;-75
2023/07/23 09:00:44;;;;;;;10.73;5.43;;;;;;;24.83;40.40;94116.09;5102216;28;20063;-75
2023/07/23 09:03:14;;;;;;;7.75;5.43;;;;;;;24.94;40.68;94124.19;5101859;28;20039;-74
2023/07/23 09:05:40;;;;;;;9.23;5.80;;;;;;;24.93;40.48;94104.38;5103977;28;20032;-75
2023/07/23 09:08:07;;;;;;;8.30;6.30;;;;;;;25.09;40.62;94122.94;5104148;28;20035;-74
2023/07/23 09:10:35;;;;;;;10.35;6.20;;;;;;;25.09;40.80;94117.50;5101997;28;20107;-74
2023/07/23 09:13:11;;;;;;;11.57;5.38;;;;;;;25.23;39.56;94118.19;5104703;28;20066;-75
2023/07/23 09:15:36;;;;;;;9.85;5.90;;;;;;;25.22;39.75;94108.47;5086257;28;20052;-75
2023/07/23 09:18:02;;;;;;;10.70;6.05;;;;;;;25.26;39.49;94122.84;5102895;28;20016;-74
2023/07/23 09:20:27;;;;;;;10.32;6.10;;;;;;;25.36;39.06;94115.03;5103729;28;20034;-73
2023/07/23 09:22:52;;;;;;;10.13;6.28;;;;;;;25.39;39.08;94120.44;5104139;28;20032;-74
2023/07/23 09:25:18;;;;;;;10.50;6.47;;;;;;;25.45;40.00;94118.84;5102607;28;20058;-74
2023/07/23 09:27:43;;;;;;;11.77;6.63;;;;;;;25.56;39.73;94116.06;5101691;28;20177;-74
2023/07/23 09:30:19;;;;;;;11.05;5.70;;;;;;;25.62;39.59;94128.81;5101217;28;20319;-75
2023/07/23 09:32:44;;;;;;;10.90;6.70;;;;;;;25.59;38.57;94116.03;5104384;28;20117;-74
2023/07/23 09:35:09;;;;;;;7.80;5.90;;;;;;;25.39;38.36;94125.13;5100304;28;20028;-73
2023/07/23 09:37:35;;;;;;;8.27;6.22;;;;;;;25.46;39.00;94120.41;5099240;28;20104;-74
2023/07/23 09:40:04;;;;;;;9.07;5.50;;;;;;;25.45;38.90;94118.84;5102747;28;20111;-74
2023/07/23 09:42:29;;;;;;;11.23;5.82;;;;;;;25.42;38.65;94108.75;5101753;28;20070;-75
2023/07/23 09:45:00;;;;;;;10.57;6.28;;;;;;;25.50;38.60;94117.66;5087217;28;20141;-75
2023/07/23 09:47:27;;;;;;;9.82;6.18;;;;;;;25.49;39.45;94116.88;5100218;28;20008;-75
2023/07/23 09:49:53;;;;;;;10.80;6.60;;;;;;;25.46;38.23;94120.41;5103402;28;20055;-75
2023/07/23 09:52:23;;;;;;;10.25;6.40;;;;;;;25.55;38.13;94118.00;5101769;28;20035;-76
2023/07/23 09:54:51;;;;;;;10.23;6.07;;;;;;;25.75;37.78;94125.63;5104779;28;20114;-74
2023/07/23 09:57:18;;;;;;;12.07;7.50;;;;;;;25.77;37.31;94118.59;5103117;28;20379;-74
2023/07/23 09:59:45;;;;;;;10.05;6.70;;;;;;;25.83;37.49;94121.66;5103381;28;20034;-74
2023/07/23 10:02:13;;;;;;;13.32;6.88;;;;;;;25.86;37.87;94108.00;5101473;28;20040;-75
2023/07/23 10:04:38;;;;;;;11.18;7.00;;;;;;;25.95;37.24;94113.81;5103592;28;20044;-74
2023/07/23 10:07:05;;;;;;;11.55;6.05;;;;;;;25.96;37.37;94100.91;5099517;28;20043;-75
2023/07/23 10:09:32;;;;;;;9.15;5.80;;;;;;;26.04;35.90;94113.31;5101713;28;20036;-75
2023/07/23 10:11:57;;;;;;;10.25;6.57;;;;;;;25.92;35.49;94090.06;5096382;28;20028;-74
2023/07/23 10:14:23;;;;;;;10.02;6.68;;;;;;;25.97;33.50;94108.69;5099993;28;20079;-74
2023/07/23 10:16:50;;;;;;;8.77;6.70;;;;;;;25.91;33.77;94106.84;5097229;28;20121;-74
2023/07/23 10:19:19;;;;;;;11.80;6.95;;;;;;;25.99;34.60;94098.19;5077151;28;20032;-74
2023/07/23 10:21:48;;;;;;;16.25;7.05;;;;;;;26.12;33.96;94091.03;5094043;28;20051;-74
2023/07/23 10:24:14;;;;;;;14.32;6.97;;;;;;;26.09;34.68;94099.25;5098486;28;20271;-74
2023/07/23 10:26:47;;;;;;;12.77;7.22;;;;;;;26.09;34.24;94107.44;5097638;28;20092;-74
2023/07/23 10:29:21;;;;;;;13.40;7.13;;;;;;;26.15;34.14;94088.69;5096989;28;20100;-74
2023/07/23 10:31:47;;;;;;;17.40;8.07;;;;;;;26.07;33.46;94104.31;5098387;28;20044;-75
2023/07/23 10:34:21;;;;;;;10.38;7.22;;;;;;;25.91;35.04;94106.84;5097912;28;20328;-75
2023/07/23 10:37:10;;;;;;;9.02;6.95;;;;;;;26.06;35.04;94109.00;5098011;28;20043;-75
2023/07/23 10:39:47;;;;;;;13.35;7.88;;;;;;;26.01;34.29;94081.41;5098714;28;20110;-74
2023/07/23 10:42:27;;;;;;;12.98;7.72;;;;;;;26.19;34.83;94095.66;5078846;28;20039;-73
2023/07/23 10:45:12;;;;;;;13.57;8.68;;;;;;;26.23;34.80;94088.19;5081067;28;20047;-73
2023/07/23 10:47:38;;;;;;;11.40;7.55;;;;;;;26.27;34.30;94090.88;5099237;28;20100;-74
2023/07/23 10:50:14;;;;;;;12.95;8.05;;;;;;;26.30;33.91;94088.09;5100057;28;20059;-75
2023/07/23 10:52:42;;;;;;;12.90;7.72;;;;;;;26.33;34.37;94084.59;5092993;28;20512;-77
2023/07/23 10:55:08;;;;;;;11.73;8.48;;;;;;;26.26;33.73;94084.66;5090296;28;20036;-74
2023/07/23 10:57:38;;;;;;;12.15;8.98;;;;;;;26.15;34.57;94084.00;5092376;28;20051;-75
2023/07/23 11:00:17;;;;;;;13.85;8.32;;;;;;;26.25;35.03;94079.63;5094135;28;20024;-74
2023/07/23 11:02:47;;;;;;;13.23;8.60;;;;;;;26.27;33.38;94094.38;5097190;28;20023;-74
2023/07/23 11:05:14;;;;;;;15.90;9.75;;;;;;;26.17;33.56;94103.44;5082036;28;20043;-74
2023/07/23 11:07:39;;;;;;;17.38;8.90;;;;;;;26.23;33.39;94092.88;5095196;28;20056;-74
2023/07/23 11:10:19;;;;;;;12.82;9.68;;;;;;;26.27;32.88;94097.09;5097501;28;20203;-75
2023/07/23 11:12:45;;;;;;;14.02;9.20;;;;;;;26.19;32.76;94095.66;5077495;28;20118;-74
2023/07/23 11:15:16;;;;;;;15.75;9.05;;;;;;;26.34;33.57;94090.81;5099634;28;20016;-74
2023/07/23 11:17:42;;;;;;;12.07;8.73;;;;;;;26.37;34.48;94085.31;5096595;28;20027;-73
2023/07/23 11:20:08;;;;;;;13.57;8.95;;;;;;;26.32;34.88;94082.25;5097050;28;20040;-74
2023/07/23 11:22:34;;;;;;;14.07;9.70;;;;;;;26.49;34.97;94103.91;5098841;28;20138;-74
2023/07/23 11:24:59;;;;;;;12.70;9.15;;;;;;;26.32;33.86;94069.41;5096827;28;20036;-73